sensor_id;sensor_type;location;lat;lon;timestamp;temperature;humidity
14192;DHT22;7177;48.572;7.838;2023-04-03T00:01:54;5.10;99.90
14192;DHT22;7177;48.572;7.838;2023-04-03T00:04:20;5.00;99.90
14192;DHT22;7177;48.572;7.838;2023-04-03T00:06:45;5.10;99.90
14192;DHT22;7177;48.572;7.838;2023-04-03T00:09:11;5.00;99.90
14192;DHT22;7177;48.572;7.838;2023-04-03T00:11:37;4.90;99.90
14192;DHT22;7177;48.572;7.838;2023-04-03T00:14:02;5.00;99.90
14192;DHT22;7177;48.572;7.838;2023-04-03T00:16:28;5.00;99.90
14192;DHT22;7177;48.572;7.838;2023-04-03T00:18:53;5.00;99.90
14192;DHT22;7177;48.572;7.838;2023-04-03T00:21:19;5.00;99.90
14192;DHT22;7177;48.572;7.838;2023-04-03T00:23:45;5.00;99.90
14192;DHT22;7177;48.572;7.838;2023-04-03T00:26:11;5.00;99.90
14192;DHT22;7177;48.572;7.838;2023-04-03T00:28:36;5.00;99.90
14192;DHT22;7177;48.572;7.838;2023-04-03T00:31:02;5.00;99.90
14192;DHT22;7177;48.572;7.838;2023-04-03T00:33:28;5.00;99.90
14192;DHT22;7177;48.572;7.838;2023-04-03T00:35:53;5.10;99.90
14192;DHT22;7177;48.572;7.838;2023-04-03T00:38:19;5.00;99.90
14192;DHT22;7177;48.572;7.838;2023-04-03T00:40:47;5.10;99.90
14192;DHT22;7177;48.572;7.838;2023-04-03T00:43:22;5.00;99.90
14192;DHT22;7177;48.572;7.838;2023-04-03T00:45:53;5.00;99.90
14192;DHT22;7177;48.572;7.838;2023-04-03T00:48:27;5.00;99.90
14192;DHT22;7177;48.572;7.838;2023-04-03T00:50:53;5.00;99.90
14192;DHT22;7177;48.572;7.838;2023-04-03T00:53:24;5.10;99.90
14192;DHT22;7177;48.572;7.838;2023-04-03T00:55:51;5.00;99.90
14192;DHT22;7177;48.572;7.838;2023-04-03T00:58:20;5.00;99.90
14192;DHT22;7177;48.572;7.838;2023-04-03T01:00:51;5.10;99.90
14192;DHT22;7177;48.572;7.838;2023-04-03T01:03:21;5.10;99.90
14192;DHT22;7177;48.572;7.838;2023-04-03T01:05:47;5.10;99.90
14192;DHT22;7177;48.572;7.838;2023-04-03T01:08:12;5.00;99.90
14192;DHT22;7177;48.572;7.838;2023-04-03T01:10:38;5.00;99.90
14192;DHT22;7177;48.572;7.838;2023-04-03T01:13:21;5.00;99.90
14192;DHT22;7177;48.572;7.838;2023-04-03T01:15:48;5.10;99.90
14192;DHT22;7177;48.572;7.838;2023-04-03T01:18:13;5.10;99.90
14192;DHT22;7177;48.572;7.838;2023-04-03T01:21:20;5.00;99.90
14192;DHT22;7177;48.572;7.838;2023-04-03T01:24:10;5.10;99.90
14192;DHT22;7177;48.572;7.838;2023-04-03T01:26:36;5.00;99.90
14192;DHT22;7177;48.572;7.838;2023-04-03T01:29:03;5.00;99.90
14192;DHT22;7177;48.572;7.838;2023-04-03T01:34:00;5.00;99.90
14192;DHT22;7177;48.572;7.838;2023-04-03T01:36:29;5.10;99.90
14192;DHT22;7177;48.572;7.838;2023-04-03T01:38:57;5.10;99.90
14192;DHT22;7177;48.572;7.838;2023-04-03T01:41:23;5.10;99.90
14192;DHT22;7177;48.572;7.838;2023-04-03T01:43:49;5.00;99.90
14192;DHT22;7177;48.572;7.838;2023-04-03T01:46:16;5.10;99.90
14192;DHT22;7177;48.572;7.838;2023-04-03T01:48:41;5.10;99.90
14192;DHT22;7177;48.572;7.838;2023-04-03T01:51:07;5.10;99.90
14192;DHT22;7177;48.572;7.838;2023-04-03T01:53:33;5.00;99.90
14192;DHT22;7177;48.572;7.838;2023-04-03T01:55:58;5.10;99.90
14192;DHT22;7177;48.572;7.838;2023-04-03T01:58:24;5.10;99.90
14192;DHT22;7177;48.572;7.838;2023-04-03T02:00:50;5.10;99.90
14192;DHT22;7177;48.572;7.838;2023-04-03T02:03:16;5.10;99.90
14192;DHT22;7177;48.572;7.838;2023-04-03T02:05:41;5.00;99.90
14192;DHT22;7177;48.572;7.838;2023-04-03T02:08:07;5.00;99.90
14192;DHT22;7177;48.572;7.838;2023-04-03T02:10:32;5.00;99.90
14192;DHT22;7177;48.572;7.838;2023-04-03T02:12:58;5.00;99.90
14192;DHT22;7177;48.572;7.838;2023-04-03T02:15:23;5.10;99.90
14192;DHT22;7177;48.572;7.838;2023-04-03T02:17:49;5.00;99.90
14192;DHT22;7177;48.572;7.838;2023-04-03T02:20:15;5.00;99.90
14192;DHT22;7177;48.572;7.838;2023-04-03T02:22:40;5.00;99.90
14192;DHT22;7177;48.572;7.838;2023-04-03T02:25:06;5.00;99.90
14192;DHT22;7177;48.572;7.838;2023-04-03T02:27:32;5.00;99.90
14192;DHT22;7177;48.572;7.838;2023-04-03T02:29:57;5.00;99.90
14192;DHT22;7177;48.572;7.838;2023-04-03T02:32:23;4.90;99.90
14192;DHT22;7177;48.572;7.838;2023-04-03T02:34:49;5.00;99.90
14192;DHT22;7177;48.572;7.838;2023-04-03T02:37:14;5.00;99.90
14192;DHT22;7177;48.572;7.838;2023-04-03T02:39:40;4.90;99.90
14192;DHT22;7177;48.572;7.838;2023-04-03T02:42:05;4.90;99.90
14192;DHT22;7177;48.572;7.838;2023-04-03T02:44:31;4.90;99.90
14192;DHT22;7177;48.572;7.838;2023-04-03T02:46:56;5.00;99.90
14192;DHT22;7177;48.572;7.838;2023-04-03T02:49:22;4.90;99.90
14192;DHT22;7177;48.572;7.838;2023-04-03T02:51:47;4.90;99.90
14192;DHT22;7177;48.572;7.838;2023-04-03T02:54:13;4.90;99.90
14192;DHT22;7177;48.572;7.838;2023-04-03T02:56:39;4.80;99.90
14192;DHT22;7177;48.572;7.838;2023-04-03T02:59:05;4.80;99.90
14192;DHT22;7177;48.572;7.838;2023-04-03T03:01:30;4.80;99.90
14192;DHT22;7177;48.572;7.838;2023-04-03T03:03:58;4.80;99.90
14192;DHT22;7177;48.572;7.838;2023-04-03T03:06:24;4.80;99.90
14192;DHT22;7177;48.572;7.838;2023-04-03T03:08:50;4.80;99.90
14192;DHT22;7177;48.572;7.838;2023-04-03T03:11:15;4.80;99.90
14192;DHT22;7177;48.572;7.838;2023-04-03T03:13:41;4.80;99.90
14192;DHT22;7177;48.572;7.838;2023-04-03T03:16:07;4.80;99.90
14192;DHT22;7177;48.572;7.838;2023-04-03T03:18:33;4.70;99.90
14192;DHT22;7177;48.572;7.838;2023-04-03T03:21:00;4.70;99.90
14192;DHT22;7177;48.572;7.838;2023-04-03T03:23:28;4.70;99.90
14192;DHT22;7177;48.572;7.838;2023-04-03T03:25:58;4.70;99.90
14192;DHT22;7177;48.572;7.838;2023-04-03T03:28:24;4.60;99.90
14192;DHT22;7177;48.572;7.838;2023-04-03T03:30:50;4.60;99.90
14192;DHT22;7177;48.572;7.838;2023-04-03T03:33:16;4.60;99.90
14192;DHT22;7177;48.572;7.838;2023-04-03T03:35:42;4.60;99.90
14192;DHT22;7177;48.572;7.838;2023-04-03T03:38:08;4.60;99.90
14192;DHT22;7177;48.572;7.838;2023-04-03T03:40:34;4.60;99.90
14192;DHT22;7177;48.572;7.838;2023-04-03T03:43:00;4.60;99.90
14192;DHT22;7177;48.572;7.838;2023-04-03T03:45:25;4.60;99.90
14192;DHT22;7177;48.572;7.838;2023-04-03T03:47:51;4.50;99.90
14192;DHT22;7177;48.572;7.838;2023-04-03T03:50:16;4.50;99.90
14192;DHT22;7177;48.572;7.838;2023-04-03T03:52:42;4.50;99.90
14192;DHT22;7177;48.572;7.838;2023-04-03T03:55:07;4.50;99.90
14192;DHT22;7177;48.572;7.838;2023-04-03T03:57:33;4.50;99.90
14192;DHT22;7177;48.572;7.838;2023-04-03T03:59:58;4.50;99.90
14192;DHT22;7177;48.572;7.838;2023-04-03T04:02:24;4.40;99.90
14192;DHT22;7177;48.572;7.838;2023-04-03T04:04:50;4.40;99.90
14192;DHT22;7177;48.572;7.838;2023-04-03T04:07:15;4.40;99.90
14192;DHT22;7177;48.572;7.838;2023-04-03T04:09:41;4.30;99.90
14192;DHT22;7177;48.572;7.838;2023-04-03T04:12:06;4.30;99.90
14192;DHT22;7177;48.572;7.838;2023-04-03T04:14:32;4.30;99.90
14192;DHT22;7177;48.572;7.838;2023-04-03T04:16:57;4.30;99.90
14192;DHT22;7177;48.572;7.838;2023-04-03T04:19:23;4.30;99.90
14192;DHT22;7177;48.572;7.838;2023-04-03T04:21:49;4.20;99.90
14192;DHT22;7177;48.572;7.838;2023-04-03T04:24:14;4.20;99.90
14192;DHT22;7177;48.572;7.838;2023-04-03T04:26:40;4.20;99.90
14192;DHT22;7177;48.572;7.838;2023-04-03T04:29:06;4.20;99.90
14192;DHT22;7177;48.572;7.838;2023-04-03T04:31:31;4.10;99.90
14192;DHT22;7177;48.572;7.838;2023-04-03T04:33:57;4.10;99.90
14192;DHT22;7177;48.572;7.838;2023-04-03T04:36:22;4.10;99.90
14192;DHT22;7177;48.572;7.838;2023-04-03T04:38:48;4.00;99.90
14192;DHT22;7177;48.572;7.838;2023-04-03T04:41:13;4.00;99.90
14192;DHT22;7177;48.572;7.838;2023-04-03T04:43:39;4.00;99.90
14192;DHT22;7177;48.572;7.838;2023-04-03T04:46:07;4.00;99.90
14192;DHT22;7177;48.572;7.838;2023-04-03T04:48:34;4.00;99.90
14192;DHT22;7177;48.572;7.838;2023-04-03T04:51:00;4.00;99.90
14192;DHT22;7177;48.572;7.838;2023-04-03T04:53:26;4.00;99.90
14192;DHT22;7177;48.572;7.838;2023-04-03T04:55:52;3.90;99.90
14192;DHT22;7177;48.572;7.838;2023-04-03T04:58:18;4.00;99.90
14192;DHT22;7177;48.572;7.838;2023-04-03T05:00:44;3.90;99.90
14192;DHT22;7177;48.572;7.838;2023-04-03T05:03:10;3.90;99.90
14192;DHT22;7177;48.572;7.838;2023-04-03T05:05:35;3.90;99.90
14192;DHT22;7177;48.572;7.838;2023-04-03T05:08:01;3.90;99.90
14192;DHT22;7177;48.572;7.838;2023-04-03T05:10:28;3.90;99.90
14192;DHT22;7177;48.572;7.838;2023-04-03T05:12:53;3.90;99.90
14192;DHT22;7177;48.572;7.838;2023-04-03T05:15:19;4.00;99.90
14192;DHT22;7177;48.572;7.838;2023-04-03T05:17:44;4.00;99.90
14192;DHT22;7177;48.572;7.838;2023-04-03T05:20:10;4.00;99.90
14192;DHT22;7177;48.572;7.838;2023-04-03T05:22:36;4.00;99.90
14192;DHT22;7177;48.572;7.838;2023-04-03T05:25:01;4.00;99.90
14192;DHT22;7177;48.572;7.838;2023-04-03T05:27:27;3.90;99.90
14192;DHT22;7177;48.572;7.838;2023-04-03T05:29:55;3.90;99.90
14192;DHT22;7177;48.572;7.838;2023-04-03T05:32:24;3.90;99.90
14192;DHT22;7177;48.572;7.838;2023-04-03T05:34:52;3.90;99.90
14192;DHT22;7177;48.572;7.838;2023-04-03T05:37:17;3.90;99.90
14192;DHT22;7177;48.572;7.838;2023-04-03T05:39:43;3.90;99.90
14192;DHT22;7177;48.572;7.838;2023-04-03T05:42:08;3.90;99.90
14192;DHT22;7177;48.572;7.838;2023-04-03T05:44:34;3.80;99.90
14192;DHT22;7177;48.572;7.838;2023-04-03T05:47:00;3.90;99.90
14192;DHT22;7177;48.572;7.838;2023-04-03T05:49:26;3.90;99.90
14192;DHT22;7177;48.572;7.838;2023-04-03T05:51:51;3.90;99.90
14192;DHT22;7177;48.572;7.838;2023-04-03T05:54:28;3.90;99.90
14192;DHT22;7177;48.572;7.838;2023-04-03T05:56:53;4.00;99.90
14192;DHT22;7177;48.572;7.838;2023-04-03T05:59:20;4.00;99.90
14192;DHT22;7177;48.572;7.838;2023-04-03T06:01:46;4.10;99.90
14192;DHT22;7177;48.572;7.838;2023-04-03T06:04:12;4.10;99.90
14192;DHT22;7177;48.572;7.838;2023-04-03T06:06:51;4.20;99.90
14192;DHT22;7177;48.572;7.838;2023-04-03T06:09:17;4.20;99.90
14192;DHT22;7177;48.572;7.838;2023-04-03T06:11:43;4.20;99.90
14192;DHT22;7177;48.572;7.838;2023-04-03T06:14:09;4.30;99.90
14192;DHT22;7177;48.572;7.838;2023-04-03T06:16:35;4.30;99.90
14192;DHT22;7177;48.572;7.838;2023-04-03T06:19:00;4.30;99.90
14192;DHT22;7177;48.572;7.838;2023-04-03T06:21:26;4.30;99.90
14192;DHT22;7177;48.572;7.838;2023-04-03T06:23:52;4.40;99.90
14192;DHT22;7177;48.572;7.838;2023-04-03T06:26:17;4.40;99.90
14192;DHT22;7177;48.572;7.838;2023-04-03T06:28:43;4.50;99.90
14192;DHT22;7177;48.572;7.838;2023-04-03T06:31:09;4.50;99.90
14192;DHT22;7177;48.572;7.838;2023-04-03T06:33:34;4.70;99.90
14192;DHT22;7177;48.572;7.838;2023-04-03T06:36:03;4.80;99.90
14192;DHT22;7177;48.572;7.838;2023-04-03T06:38:29;4.80;99.90
14192;DHT22;7177;48.572;7.838;2023-04-03T06:40:55;4.90;99.90
14192;DHT22;7177;48.572;7.838;2023-04-03T06:43:21;5.00;99.90
14192;DHT22;7177;48.572;7.838;2023-04-03T06:45:47;5.00;99.90
14192;DHT22;7177;48.572;7.838;2023-04-03T06:48:13;5.10;99.90
14192;DHT22;7177;48.572;7.838;2023-04-03T06:50:38;5.20;99.90
14192;DHT22;7177;48.572;7.838;2023-04-03T06:53:04;5.30;99.90
14192;DHT22;7177;48.572;7.838;2023-04-03T06:55:29;5.50;99.90
14192;DHT22;7177;48.572;7.838;2023-04-03T06:57:55;5.70;99.90
14192;DHT22;7177;48.572;7.838;2023-04-03T07:00:21;5.80;99.90
14192;DHT22;7177;48.572;7.838;2023-04-03T07:02:46;5.80;99.90
14192;DHT22;7177;48.572;7.838;2023-04-03T07:05:12;5.90;99.90
14192;DHT22;7177;48.572;7.838;2023-04-03T07:07:38;6.00;99.90
14192;DHT22;7177;48.572;7.838;2023-04-03T07:10:06;6.10;99.90
14192;DHT22;7177;48.572;7.838;2023-04-03T07:12:32;6.30;99.90
14192;DHT22;7177;48.572;7.838;2023-04-03T07:14:57;6.40;99.90
14192;DHT22;7177;48.572;7.838;2023-04-03T07:17:23;6.60;99.90
14192;DHT22;7177;48.572;7.838;2023-04-03T07:19:49;6.90;99.90
14192;DHT22;7177;48.572;7.838;2023-04-03T07:22:14;7.00;99.90
14192;DHT22;7177;48.572;7.838;2023-04-03T07:24:40;7.00;99.90
14192;DHT22;7177;48.572;7.838;2023-04-03T07:27:05;7.10;99.90
14192;DHT22;7177;48.572;7.838;2023-04-03T07:29:31;7.20;99.90
14192;DHT22;7177;48.572;7.838;2023-04-03T07:31:57;7.30;99.90
14192;DHT22;7177;48.572;7.838;2023-04-03T07:34:23;7.40;99.90
14192;DHT22;7177;48.572;7.838;2023-04-03T07:36:48;7.60;99.90
14192;DHT22;7177;48.572;7.838;2023-04-03T07:39:14;7.70;99.90
14192;DHT22;7177;48.572;7.838;2023-04-03T07:41:40;7.80;99.90
14192;DHT22;7177;48.572;7.838;2023-04-03T07:44:05;7.90;99.90
14192;DHT22;7177;48.572;7.838;2023-04-03T07:46:31;7.90;99.90
14192;DHT22;7177;48.572;7.838;2023-04-03T07:48:57;7.90;99.90
14192;DHT22;7177;48.572;7.838;2023-04-03T07:51:23;8.10;99.90
14192;DHT22;7177;48.572;7.838;2023-04-03T07:53:49;8.00;99.90
14192;DHT22;7177;48.572;7.838;2023-04-03T07:56:16;8.20;99.90
14192;DHT22;7177;48.572;7.838;2023-04-03T07:58:42;8.50;99.90
14192;DHT22;7177;48.572;7.838;2023-04-03T08:01:07;8.70;99.90
14192;DHT22;7177;48.572;7.838;2023-04-03T08:03:33;8.70;99.90
14192;DHT22;7177;48.572;7.838;2023-04-03T08:06:05;8.80;99.90
14192;DHT22;7177;48.572;7.838;2023-04-03T08:08:31;9.00;99.90
14192;DHT22;7177;48.572;7.838;2023-04-03T08:10:58;8.90;99.90
14192;DHT22;7177;48.572;7.838;2023-04-03T08:13:25;8.90;99.90
14192;DHT22;7177;48.572;7.838;2023-04-03T08:15:51;9.00;99.90
14192;DHT22;7177;48.572;7.838;2023-04-03T08:18:17;9.10;99.90
14192;DHT22;7177;48.572;7.838;2023-04-03T08:20:43;9.20;99.90
14192;DHT22;7177;48.572;7.838;2023-04-03T08:23:09;9.40;99.90
14192;DHT22;7177;48.572;7.838;2023-04-03T08:25:41;9.70;99.90
14192;DHT22;7177;48.572;7.838;2023-04-03T08:28:07;9.80;99.90
14192;DHT22;7177;48.572;7.838;2023-04-03T08:30:33;9.50;99.90
14192;DHT22;7177;48.572;7.838;2023-04-03T08:33:01;9.10;99.90
14192;DHT22;7177;48.572;7.838;2023-04-03T08:35:27;9.30;99.90
14192;DHT22;7177;48.572;7.838;2023-04-03T08:37:52;9.60;99.90
14192;DHT22;7177;48.572;7.838;2023-04-03T08:40:18;9.70;99.90
14192;DHT22;7177;48.572;7.838;2023-04-03T08:43:18;9.60;99.90
14192;DHT22;7177;48.572;7.838;2023-04-03T08:45:51;9.30;99.90
14192;DHT22;7177;48.572;7.838;2023-04-03T08:50:50;8.30;99.90
14192;DHT22;7177;48.572;7.838;2023-04-03T08:53:23;8.10;99.90
14192;DHT22;7177;48.572;7.838;2023-04-03T08:55:51;8.20;99.90
14192;DHT22;7177;48.572;7.838;2023-04-03T08:58:22;8.30;99.90
14192;DHT22;7177;48.572;7.838;2023-04-03T09:01:04;8.30;99.90
14192;DHT22;7177;48.572;7.838;2023-04-03T09:03:37;8.30;99.90
14192;DHT22;7177;48.572;7.838;2023-04-03T09:06:15;8.50;99.90
14192;DHT22;7177;48.572;7.838;2023-04-03T09:09:13;8.40;99.90
14192;DHT22;7177;48.572;7.838;2023-04-03T09:11:48;8.20;99.90
14192;DHT22;7177;48.572;7.838;2023-04-03T09:22:44;8.50;99.90
14192;DHT22;7177;48.572;7.838;2023-04-03T09:25:29;8.40;99.90
14192;DHT22;7177;48.572;7.838;2023-04-03T09:27:59;8.40;99.90
14192;DHT22;7177;48.572;7.838;2023-04-03T09:30:25;8.70;99.90
14192;DHT22;7177;48.572;7.838;2023-04-03T09:32:53;8.80;99.90
14192;DHT22;7177;48.572;7.838;2023-04-03T09:35:25;8.60;99.90
14192;DHT22;7177;48.572;7.838;2023-04-03T09:37:53;8.80;99.90
14192;DHT22;7177;48.572;7.838;2023-04-03T09:42:50;8.70;99.90
14192;DHT22;7177;48.572;7.838;2023-04-03T09:45:29;8.40;99.90
14192;DHT22;7177;48.572;7.838;2023-04-03T09:48:23;8.20;99.90
14192;DHT22;7177;48.572;7.838;2023-04-03T09:53:36;8.20;99.90
14192;DHT22;7177;48.572;7.838;2023-04-03T09:56:18;8.30;99.90
14192;DHT22;7177;48.572;7.838;2023-04-03T09:59:13;8.50;99.90
14192;DHT22;7177;48.572;7.838;2023-04-03T10:01:39;9.00;99.90
14192;DHT22;7177;48.572;7.838;2023-04-03T10:04:15;9.40;99.90
14192;DHT22;7177;48.572;7.838;2023-04-03T10:06:46;9.50;99.90
14192;DHT22;7177;48.572;7.838;2023-04-03T10:09:17;9.50;99.90
14192;DHT22;7177;48.572;7.838;2023-04-03T10:12:04;9.50;99.90
14192;DHT22;7177;48.572;7.838;2023-04-03T10:14:41;9.60;99.90
14192;DHT22;7177;48.572;7.838;2023-04-03T10:20:07;9.60;99.90
14192;DHT22;7177;48.572;7.838;2023-04-03T10:22:45;9.40;99.90
14192;DHT22;7177;48.572;7.838;2023-04-03T10:25:41;9.40;99.90
14192;DHT22;7177;48.572;7.838;2023-04-03T10:31:04;10.30;99.20
14192;DHT22;7177;48.572;7.838;2023-04-03T10:39:05;10.10;99.90
14192;DHT22;7177;48.572;7.838;2023-04-03T10:44:31;9.80;99.90
14192;DHT22;7177;48.572;7.838;2023-04-03T10:47:20;9.60;99.90
14192;DHT22;7177;48.572;7.838;2023-04-03T10:50:02;9.30;99.90
14192;DHT22;7177;48.572;7.838;2023-04-03T10:55:37;9.30;99.90
14192;DHT22;7177;48.572;7.838;2023-04-03T10:58:04;9.30;99.90
14192;DHT22;7177;48.572;7.838;2023-04-03T11:00:41;9.20;99.90
14192;DHT22;7177;48.572;7.838;2023-04-03T11:03:27;9.20;99.90
14192;DHT22;7177;48.572;7.838;2023-04-03T11:05:55;9.30;99.90
14192;DHT22;7177;48.572;7.838;2023-04-03T11:08:44;9.30;99.90
14192;DHT22;7177;48.572;7.838;2023-04-03T11:11:17;9.30;99.90
14192;DHT22;7177;48.572;7.838;2023-04-03T11:14:09;9.30;99.90
14192;DHT22;7177;48.572;7.838;2023-04-03T11:16:41;9.30;99.90
14192;DHT22;7177;48.572;7.838;2023-04-03T11:19:21;9.30;99.90
14192;DHT22;7177;48.572;7.838;2023-04-03T11:22:08;9.40;99.80
14192;DHT22;7177;48.572;7.838;2023-04-03T11:24:37;9.40;99.90
14192;DHT22;7177;48.572;7.838;2023-04-03T11:27:05;9.30;99.90
14192;DHT22;7177;48.572;7.838;2023-04-03T11:29:38;9.30;99.90
14192;DHT22;7177;48.572;7.838;2023-04-03T11:35:01;9.40;99.90
14192;DHT22;7177;48.572;7.838;2023-04-03T11:37:37;9.30;99.90
14192;DHT22;7177;48.572;7.838;2023-04-03T11:40:08;9.30;99.90
14192;DHT22;7177;48.572;7.838;2023-04-03T11:42:41;9.30;99.90
14192;DHT22;7177;48.572;7.838;2023-04-03T12:11:25;9.10;99.60
14192;DHT22;7177;48.572;7.838;2023-04-03T12:16:29;9.60;99.90
14192;DHT22;7177;48.572;7.838;2023-04-03T12:24:23;9.40;98.20
14192;DHT22;7177;48.572;7.838;2023-04-03T12:34:42;9.30;99.90
14192;DHT22;7177;48.572;7.838;2023-04-03T12:37:21;9.30;99.30
14192;DHT22;7177;48.572;7.838;2023-04-03T12:39:58;9.20;99.30
14192;DHT22;7177;48.572;7.838;2023-04-03T12:43:09;9.20;99.90
14192;DHT22;7177;48.572;7.838;2023-04-03T12:45:25;9.00;99.90
14192;DHT22;7177;48.572;7.838;2023-04-03T12:47:54;9.10;99.90
14192;DHT22;7177;48.572;7.838;2023-04-03T12:52:59;9.20;98.80
14192;DHT22;7177;48.572;7.838;2023-04-03T12:55:26;9.10;98.50
14192;DHT22;7177;48.572;7.838;2023-04-03T12:57:52;9.20;99.30
14192;DHT22;7177;48.572;7.838;2023-04-03T13:02:48;9.40;99.90
14192;DHT22;7177;48.572;7.838;2023-04-03T13:05:17;9.30;99.90
14192;DHT22;7177;48.572;7.838;2023-04-03T13:07:44;9.40;99.90
14192;DHT22;7177;48.572;7.838;2023-04-03T13:10:15;9.50;99.90
14192;DHT22;7177;48.572;7.838;2023-04-03T13:12:58;9.50;99.90
14192;DHT22;7177;48.572;7.838;2023-04-03T13:15:45;9.40;99.90
14192;DHT22;7177;48.572;7.838;2023-04-03T13:18:30;9.30;99.30
14192;DHT22;7177;48.572;7.838;2023-04-03T13:21:12;9.30;99.90
14192;DHT22;7177;48.572;7.838;2023-04-03T13:23:42;9.30;99.90
14192;DHT22;7177;48.572;7.838;2023-04-03T13:26:10;9.30;99.90
14192;DHT22;7177;48.572;7.838;2023-04-03T13:28:37;9.30;99.90
14192;DHT22;7177;48.572;7.838;2023-04-03T13:33:43;9.30;99.90
14192;DHT22;7177;48.572;7.838;2023-04-03T13:36:21;9.30;99.90
14192;DHT22;7177;48.572;7.838;2023-04-03T13:41:31;9.30;98.90
14192;DHT22;7177;48.572;7.838;2023-04-03T13:46:57;9.20;99.90
14192;DHT22;7177;48.572;7.838;2023-04-03T13:51:51;9.60;99.90
14192;DHT22;7177;48.572;7.838;2023-04-03T13:54:31;9.60;99.10
14192;DHT22;7177;48.572;7.838;2023-04-03T13:56:58;9.60;99.90
14192;DHT22;7177;48.572;7.838;2023-04-03T14:04:25;9.50;99.70
14192;DHT22;7177;48.572;7.838;2023-04-03T14:06:52;9.40;99.90
14192;DHT22;7177;48.572;7.838;2023-04-03T14:09:19;9.40;99.90
14192;DHT22;7177;48.572;7.838;2023-04-03T14:11:46;9.20;99.90
14192;DHT22;7177;48.572;7.838;2023-04-03T14:14:24;9.10;99.90
14192;DHT22;7177;48.572;7.838;2023-04-03T14:16:55;9.00;99.90
14192;DHT22;7177;48.572;7.838;2023-04-03T14:21:47;8.80;99.90
14192;DHT22;7177;48.572;7.838;2023-04-03T14:24:13;8.80;99.90
14192;DHT22;7177;48.572;7.838;2023-04-03T14:26:39;8.80;99.90
14192;DHT22;7177;48.572;7.838;2023-04-03T14:29:04;8.80;99.90
14192;DHT22;7177;48.572;7.838;2023-04-03T14:31:31;8.80;99.90
14192;DHT22;7177;48.572;7.838;2023-04-03T14:33:56;8.90;99.50
14192;DHT22;7177;48.572;7.838;2023-04-03T14:36:27;8.90;99.90
14192;DHT22;7177;48.572;7.838;2023-04-03T14:38:54;9.00;99.90
14192;DHT22;7177;48.572;7.838;2023-04-03T14:41:22;9.00;99.90
14192;DHT22;7177;48.572;7.838;2023-04-03T14:43:49;9.00;99.30
14192;DHT22;7177;48.572;7.838;2023-04-03T14:46:21;8.90;99.80
14192;DHT22;7177;48.572;7.838;2023-04-03T14:48:48;8.80;99.80
14192;DHT22;7177;48.572;7.838;2023-04-03T14:51:14;8.80;99.70
14192;DHT22;7177;48.572;7.838;2023-04-03T14:53:42;8.70;99.90
14192;DHT22;7177;48.572;7.838;2023-04-03T14:56:27;8.70;99.80
14192;DHT22;7177;48.572;7.838;2023-04-03T14:59:00;8.70;99.90
14192;DHT22;7177;48.572;7.838;2023-04-03T15:01:27;8.50;99.90
14192;DHT22;7177;48.572;7.838;2023-04-03T15:03:53;8.50;99.90
14192;DHT22;7177;48.572;7.838;2023-04-03T15:06:19;8.40;99.90
14192;DHT22;7177;48.572;7.838;2023-04-03T15:08:46;8.40;99.90
14192;DHT22;7177;48.572;7.838;2023-04-03T15:11:13;8.30;99.90
14192;DHT22;7177;48.572;7.838;2023-04-03T15:13:39;8.30;99.90
14192;DHT22;7177;48.572;7.838;2023-04-03T15:16:08;8.40;99.90
14192;DHT22;7177;48.572;7.838;2023-04-03T15:18:38;8.40;99.90
14192;DHT22;7177;48.572;7.838;2023-04-03T15:21:04;8.40;99.90
14192;DHT22;7177;48.572;7.838;2023-04-03T15:23:30;8.50;99.90
14192;DHT22;7177;48.572;7.838;2023-04-03T15:25:56;8.40;99.90
14192;DHT22;7177;48.572;7.838;2023-04-03T15:28:32;8.30;99.90
14192;DHT22;7177;48.572;7.838;2023-04-03T15:30:58;8.30;99.90
14192;DHT22;7177;48.572;7.838;2023-04-03T15:33:24;8.30;99.90
14192;DHT22;7177;48.572;7.838;2023-04-03T15:35:50;8.40;99.90
14192;DHT22;7177;48.572;7.838;2023-04-03T15:38:15;8.50;99.90
14192;DHT22;7177;48.572;7.838;2023-04-03T15:40:41;8.50;99.90
14192;DHT22;7177;48.572;7.838;2023-04-03T15:43:09;8.50;99.00
14192;DHT22;7177;48.572;7.838;2023-04-03T15:45:35;8.50;98.40
14192;DHT22;7177;48.572;7.838;2023-04-03T15:48:02;8.50;99.50
14192;DHT22;7177;48.572;7.838;2023-04-03T15:50:28;8.50;99.90
14192;DHT22;7177;48.572;7.838;2023-04-03T15:52:54;8.50;99.90
14192;DHT22;7177;48.572;7.838;2023-04-03T15:55:22;8.50;99.90
14192;DHT22;7177;48.572;7.838;2023-04-03T15:57:48;8.50;99.90
14192;DHT22;7177;48.572;7.838;2023-04-03T16:00:14;8.70;99.90
14192;DHT22;7177;48.572;7.838;2023-04-03T16:02:40;9.10;99.90
14192;DHT22;7177;48.572;7.838;2023-04-03T16:05:06;9.20;99.40
14192;DHT22;7177;48.572;7.838;2023-04-03T16:07:32;9.20;99.90
14192;DHT22;7177;48.572;7.838;2023-04-03T16:09:58;9.40;99.90
14192;DHT22;7177;48.572;7.838;2023-04-03T16:12:23;9.30;99.90
14192;DHT22;7177;48.572;7.838;2023-04-03T16:14:49;9.40;99.90
14192;DHT22;7177;48.572;7.838;2023-04-03T16:17:15;9.30;99.90
14192;DHT22;7177;48.572;7.838;2023-04-03T16:19:41;9.20;99.90
14192;DHT22;7177;48.572;7.838;2023-04-03T16:22:06;9.00;98.90
14192;DHT22;7177;48.572;7.838;2023-04-03T16:24:32;8.90;99.90
14192;DHT22;7177;48.572;7.838;2023-04-03T16:26:57;8.80;99.80
14192;DHT22;7177;48.572;7.838;2023-04-03T16:29:23;8.80;99.90
14192;DHT22;7177;48.572;7.838;2023-04-03T16:31:49;8.60;99.90
14192;DHT22;7177;48.572;7.838;2023-04-03T16:34:15;8.50;99.90
14192;DHT22;7177;48.572;7.838;2023-04-03T16:36:41;8.60;99.90
14192;DHT22;7177;48.572;7.838;2023-04-03T16:39:06;8.70;99.90
14192;DHT22;7177;48.572;7.838;2023-04-03T16:41:35;8.60;99.90
14192;DHT22;7177;48.572;7.838;2023-04-03T16:44:00;8.50;99.90
14192;DHT22;7177;48.572;7.838;2023-04-03T16:46:26;8.40;99.90
14192;DHT22;7177;48.572;7.838;2023-04-03T16:48:52;8.30;99.90
14192;DHT22;7177;48.572;7.838;2023-04-03T16:51:17;8.20;99.80
14192;DHT22;7177;48.572;7.838;2023-04-03T16:53:43;8.10;99.00
14192;DHT22;7177;48.572;7.838;2023-04-03T16:56:08;8.10;99.90
14192;DHT22;7177;48.572;7.838;2023-04-03T16:58:34;8.10;99.90
14192;DHT22;7177;48.572;7.838;2023-04-03T17:01:11;8.00;99.90
14192;DHT22;7177;48.572;7.838;2023-04-03T17:03:37;8.00;99.80
14192;DHT22;7177;48.572;7.838;2023-04-03T17:06:03;8.00;99.90
14192;DHT22;7177;48.572;7.838;2023-04-03T17:08:28;7.90;99.90
14192;DHT22;7177;48.572;7.838;2023-04-03T17:10:54;7.90;99.90
14192;DHT22;7177;48.572;7.838;2023-04-03T17:13:20;7.90;99.90
14192;DHT22;7177;48.572;7.838;2023-04-03T17:15:45;7.80;99.90
14192;DHT22;7177;48.572;7.838;2023-04-03T17:18:11;7.80;99.90
14192;DHT22;7177;48.572;7.838;2023-04-03T17:20:37;7.80;99.90
14192;DHT22;7177;48.572;7.838;2023-04-03T17:23:04;7.70;99.90
14192;DHT22;7177;48.572;7.838;2023-04-03T17:25:29;7.70;99.90
14192;DHT22;7177;48.572;7.838;2023-04-03T17:27:55;7.70;99.90
14192;DHT22;7177;48.572;7.838;2023-04-03T17:30:21;7.60;99.90
14192;DHT22;7177;48.572;7.838;2023-04-03T17:32:47;7.60;99.90
14192;DHT22;7177;48.572;7.838;2023-04-03T17:35:13;7.50;99.90
14192;DHT22;7177;48.572;7.838;2023-04-03T17:37:38;7.30;99.90
14192;DHT22;7177;48.572;7.838;2023-04-03T17:40:05;7.20;99.90
14192;DHT22;7177;48.572;7.838;2023-04-03T17:42:31;7.20;99.90
14192;DHT22;7177;48.572;7.838;2023-04-03T17:44:57;7.10;99.90
14192;DHT22;7177;48.572;7.838;2023-04-03T17:47:22;7.00;99.90
14192;DHT22;7177;48.572;7.838;2023-04-03T17:49:50;6.90;99.90
14192;DHT22;7177;48.572;7.838;2023-04-03T17:52:15;6.90;99.90
14192;DHT22;7177;48.572;7.838;2023-04-03T17:54:41;6.90;99.90